createdAt,value
2018-11-20T00:01:45.519Z,0.08
2018-11-20T00:04:37.253Z,-0.09
2018-11-20T00:07:28.314Z,-0.08
2018-11-20T00:10:45.270Z,-0.06
2018-11-20T00:13:41.375Z,0.08
2018-11-20T00:16:29.546Z,0.00
2018-11-20T00:19:20.195Z,0.13
2018-11-20T00:22:22.574Z,0.04
2018-11-20T00:25:11.665Z,0.04
2018-11-20T00:28:06.951Z,-0.11
2018-11-20T00:31:30.959Z,0.00
2018-11-20T00:34:05.319Z,0.31
2018-11-20T00:37:05.530Z,0.18
2018-11-20T00:40:04.893Z,0.27
2018-11-20T00:43:03.169Z,0.47
2018-11-20T00:46:08.879Z,0.37
2018-11-20T00:49:11.567Z,0.36
2018-11-20T00:51:59.930Z,0.15
2018-11-20T00:54:53.206Z,0.35
2018-11-20T00:58:11.239Z,0.25
2018-11-20T01:01:20.726Z,0.23
2018-11-20T01:04:16.237Z,0.01
2018-11-20T01:06:58.671Z,0.41
2018-11-20T01:09:47.622Z,0.04
2018-11-20T01:12:37.891Z,0.27
2018-11-20T01:15:40.373Z,0.32
2018-11-20T01:18:39.633Z,0.10
2018-11-20T01:22:07.815Z,0.36
2018-11-20T01:25:15.914Z,0.44
2018-11-20T01:27:57.656Z,0.21
2018-11-20T01:31:01.117Z,0.48
2018-11-20T01:33:49.153Z,0.43
2018-11-20T01:36:45.988Z,0.20
2018-11-20T01:39:45.223Z,0.13
2018-11-20T01:42:37.220Z,0.09
2018-11-20T01:45:42.998Z,0.26
2018-11-20T01:49:04.778Z,0.09
2018-11-20T01:51:49.137Z,0.45
2018-11-20T01:54:41.471Z,0.26
2018-11-20T01:57:30.795Z,0.36
2018-11-20T02:00:39.140Z,0.43
2018-11-20T02:03:26.967Z,0.34
2018-11-20T02:06:10.345Z,0.28
2018-11-20T02:08:56.083Z,0.44
2018-11-20T02:11:48.491Z,0.35
2018-11-20T02:14:42.340Z,0.41
2018-11-20T02:17:49.954Z,0.47
2018-11-20T02:20:59.210Z,0.40
2018-11-20T02:23:38.811Z,0.59
2018-11-20T02:26:29.736Z,0.36
2018-11-20T02:29:18.809Z,0.30
2018-11-20T02:32:21.758Z,0.12
2018-11-20T02:35:19.433Z,0.19
2018-11-20T02:38:16.824Z,0.17
2018-11-20T02:41:10.091Z,0.44
2018-11-20T02:44:03.346Z,0.44
2018-11-20T02:47:15.250Z,0.54
2018-11-20T02:50:08.758Z,0.69
2018-11-20T02:53:04.735Z,0.64
2018-11-20T02:55:59.629Z,0.58
2018-11-20T02:59:15.990Z,0.57
2018-11-20T03:02:19.584Z,0.22
2018-11-20T03:05:29.647Z,0.29
2018-11-20T03:08:17.209Z,0.43
2018-11-20T03:11:07.290Z,0.26
2018-11-20T03:13:54.832Z,0.07
2018-11-20T03:16:43.906Z,0.32
2018-11-20T03:19:25.729Z,0.58
2018-11-20T03:22:12.522Z,0.58
2018-11-20T03:25:01.575Z,0.52
2018-11-20T03:27:52.494Z,0.61
2018-11-20T03:31:27.662Z,0.65
2018-11-20T03:34:28.894Z,0.68
2018-11-20T03:37:15.916Z,0.71
2018-11-20T03:40:27.043Z,0.46
2018-11-20T03:43:16.230Z,0.50
2018-11-20T03:46:16.695Z,0.58
2018-11-20T03:49:20.016Z,0.32
2018-11-20T03:52:13.976Z,0.35
2018-11-20T03:55:05.002Z,0.64
2018-11-20T03:57:49.017Z,0.71
2018-11-20T04:00:58.139Z,0.84
2018-11-20T04:03:49.997Z,1.04
2018-11-20T04:06:35.393Z,0.92
2018-11-20T04:09:31.293Z,0.91
2018-11-20T04:12:30.316Z,0.92
2018-11-20T04:15:18.333Z,0.92
2018-11-20T04:18:23.705Z,0.78
2018-11-20T04:21:26.586Z,0.96
2018-11-20T04:24:19.917Z,0.76
2018-11-20T04:27:21.456Z,0.91
2018-11-20T04:31:13.929Z,0.95
2018-11-20T04:34:12.338Z,0.75
2018-11-20T04:37:28.306Z,0.56
2018-11-20T04:40:33.973Z,0.66
2018-11-20T04:43:26.027Z,0.67
2018-11-20T04:49:20.731Z,0.72
2018-11-20T04:52:32.409Z,0.95
2018-11-20T04:55:30.977Z,0.80
2018-11-20T04:58:15.670Z,1.01
2018-11-20T05:01:06.279Z,0.94
2018-11-20T05:04:14.651Z,1.00
2018-11-20T05:06:57.686Z,1.13
2018-11-20T05:09:46.652Z,0.97
2018-11-20T05:12:39.296Z,0.84
2018-11-20T05:15:26.720Z,0.65
2018-11-20T05:18:32.401Z,0.97
2018-11-20T05:21:26.025Z,0.80
2018-11-20T05:24:24.009Z,1.01
2018-11-20T05:30:11.533Z,0.94
2018-11-20T05:33:25.581Z,1.28
2018-11-20T05:36:27.558Z,1.41
2018-11-20T05:39:39.472Z,1.15
2018-11-20T05:42:35.389Z,1.19
2018-11-20T05:45:26.374Z,0.84
2018-11-20T05:48:22.465Z,0.79
2018-11-20T05:51:14.796Z,1.00
2018-11-20T05:54:08.093Z,1.21
2018-11-20T05:57:14.392Z,1.16
2018-11-20T06:00:08.001Z,1.21
2018-11-20T06:03:00.241Z,1.20
2018-11-20T06:05:50.787Z,1.27
2018-11-20T06:08:40.223Z,1.19
2018-11-20T06:11:32.651Z,1.36
2018-11-20T06:14:32.695Z,1.18
2018-11-20T06:17:32.362Z,1.16
2018-11-20T06:20:22.865Z,1.31
2018-11-20T06:23:13.144Z,1.04
2018-11-20T06:26:13.002Z,1.07
2018-11-20T06:29:13.034Z,1.03
2018-11-20T06:32:07.315Z,1.46
2018-11-20T06:35:02.995Z,1.12
2018-11-20T06:38:05.759Z,1.23
2018-11-20T06:40:57.071Z,1.18
2018-11-20T06:43:46.395Z,1.12
2018-11-20T06:46:38.728Z,1.24
2018-11-20T06:49:41.152Z,1.33
2018-11-20T06:52:32.196Z,1.34
2018-11-20T06:55:27.666Z,1.48
2018-11-20T06:58:18.462Z,1.49
2018-11-20T07:01:12.428Z,1.26
2018-11-20T07:04:25.493Z,1.34
2018-11-20T07:07:19.284Z,1.74
2018-11-20T07:10:08.583Z,1.66
2018-11-20T07:13:15.419Z,1.52
2018-11-20T07:16:04.575Z,1.48
2018-11-20T07:18:56.797Z,1.50
2018-11-20T07:22:00.835Z,1.88
2018-11-20T07:24:57.877Z,1.92
2018-11-20T07:27:48.405Z,2.03
2018-11-20T07:30:37.837Z,2.46
2018-11-20T07:33:36.206Z,2.58
2018-11-20T07:36:29.601Z,2.62
2018-11-20T07:39:35.345Z,2.47
2018-11-20T07:42:29.847Z,2.94
2018-11-20T07:45:30.316Z,2.84
2018-11-20T07:48:19.786Z,3.04
2018-11-20T07:51:09.035Z,2.65
2018-11-20T07:54:18.018Z,2.44
2018-11-20T07:57:07.252Z,2.44
2018-11-20T08:00:14.374Z,2.24
2018-11-20T08:03:05.480Z,2.28
2018-11-20T08:06:11.153Z,2.26
2018-11-20T08:09:15.004Z,2.31
2018-11-20T08:12:07.609Z,2.48
2018-11-20T08:15:02.974Z,2.41
2018-11-20T08:18:08.686Z,2.66
2018-11-20T08:21:02.595Z,2.53
2018-11-20T08:23:53.163Z,2.51
2018-11-20T08:26:37.859Z,2.50
2018-11-20T08:29:26.961Z,2.38
2018-11-20T08:32:17.864Z,2.33
2018-11-20T08:35:12.873Z,2.42
2018-11-20T08:38:02.215Z,2.79
2018-11-20T08:40:55.886Z,2.84
2018-11-20T08:43:56.250Z,2.87
2018-11-20T08:47:04.696Z,2.39
2018-11-20T08:49:54.470Z,2.70
2018-11-20T08:52:55.745Z,2.61
2018-11-20T08:56:01.441Z,2.78
2018-11-20T08:58:54.024Z,2.50
2018-11-20T09:01:44.066Z,2.61
2018-11-20T09:04:53.707Z,2.88
2018-11-20T09:07:51.980Z,2.91
2018-11-20T09:10:42.087Z,2.79
2018-11-20T09:13:50.363Z,2.94
2018-11-20T09:17:02.241Z,3.03
2018-11-20T09:19:51.504Z,3.16
2018-11-20T09:22:53.479Z,3.65
2018-11-20T09:25:37.981Z,3.32
2018-11-20T09:28:31.567Z,3.27
2018-11-20T09:31:23.956Z,3.32
2018-11-20T09:34:23.332Z,3.67
2018-11-20T09:37:15.614Z,3.66
2018-11-20T09:41:21.545Z,3.52
2018-11-20T09:44:16.657Z,3.34
2018-11-20T09:47:10.728Z,3.86
2018-11-20T09:50:04.590Z,4.02
2018-11-20T09:52:57.971Z,4.04
2018-11-20T09:56:00.476Z,3.83
2018-11-20T09:58:51.810Z,3.71
2018-11-20T10:01:49.944Z,4.09
2018-11-20T10:04:50.380Z,4.48
2018-11-20T10:07:47.054Z,4.01
2018-11-20T10:11:15.553Z,3.96
2018-11-20T10:14:21.303Z,3.95
2018-11-20T10:17:08.826Z,4.34
2018-11-20T10:20:02.961Z,4.72
2018-11-20T10:23:05.998Z,4.43
2018-11-20T10:26:13.008Z,4.42
2018-11-20T10:28:57.674Z,4.63
2018-11-20T10:31:57.107Z,4.85
2018-11-20T10:34:50.034Z,4.95
2018-11-20T10:37:39.264Z,5.05
2018-11-20T10:40:37.536Z,4.95
2018-11-20T10:43:28.824Z,4.82
2018-11-20T10:46:35.943Z,5.04
2018-11-20T10:49:39.897Z,4.97
2018-11-20T10:52:23.818Z,5.17
2018-11-20T10:55:07.775Z,4.92
2018-11-20T10:58:22.235Z,5.18
2018-11-20T11:01:15.067Z,5.09
2018-11-20T11:04:20.016Z,5.30
2018-11-20T11:07:18.056Z,5.28
2018-11-20T11:10:08.515Z,5.42
2018-11-20T11:13:04.029Z,5.36
2018-11-20T11:16:07.422Z,5.46
2018-11-20T11:19:19.738Z,5.62
2018-11-20T11:22:14.735Z,5.63
2018-11-20T11:25:18.967Z,5.70
2018-11-20T11:28:13.346Z,5.72
2018-11-20T11:31:18.145Z,5.88
2018-11-20T11:34:14.051Z,5.59
2018-11-20T11:37:04.453Z,5.66
2018-11-20T11:39:54.025Z,5.99
2018-11-20T11:42:43.498Z,5.84
2018-11-20T11:45:37.791Z,6.08
2018-11-20T11:48:35.070Z,5.93
2018-11-20T11:51:26.535Z,5.90
2018-11-20T11:54:22.991Z,6.07
2018-11-20T11:57:34.721Z,6.07
2018-11-20T12:00:47.332Z,5.94
2018-11-20T12:03:42.092Z,5.99
2018-11-20T12:06:40.051Z,6.25
2018-11-20T12:09:40.648Z,6.33
2018-11-20T12:12:49.761Z,6.34
2018-11-20T12:15:47.963Z,6.50
2018-11-20T12:19:18.311Z,6.41
2018-11-20T12:22:09.078Z,6.37
2018-11-20T12:25:05.759Z,6.35
2018-11-20T12:28:16.795Z,6.10
2018-11-20T12:31:17.795Z,6.27
2018-11-20T12:34:05.269Z,6.35
2018-11-20T12:37:12.002Z,6.57
2018-11-20T12:40:14.591Z,6.49
2018-11-20T12:43:08.756Z,6.54
2018-11-20T12:46:18.390Z,6.38
2018-11-20T12:49:32.465Z,6.33
2018-11-20T12:52:24.024Z,6.28
2018-11-20T12:55:21.205Z,6.49
2018-11-20T12:58:20.409Z,6.38
2018-11-20T13:01:15.571Z,6.28
2018-11-20T13:04:19.722Z,6.37
2018-11-20T13:07:19.304Z,6.21
2018-11-20T13:10:13.841Z,6.54
2018-11-20T13:13:30.852Z,6.62
2018-11-20T13:16:37.730Z,6.55
2018-11-20T13:19:29.339Z,6.50
2018-11-20T13:22:22.327Z,6.55
2018-11-20T13:25:09.538Z,6.73
2018-11-20T13:28:46.927Z,6.97
2018-11-20T13:31:37.929Z,7.25
2018-11-20T13:34:53.859Z,6.96
2018-11-20T13:38:00.877Z,7.03
2018-11-20T13:41:44.660Z,6.97
2018-11-20T13:44:41.458Z,6.91
2018-11-20T13:47:41.055Z,6.89
2018-11-20T13:54:01.506Z,6.97
2018-11-20T13:56:55.163Z,7.09
2018-11-20T14:00:01.573Z,7.10
2018-11-20T14:02:58.400Z,7.09
2018-11-20T14:06:00.438Z,7.27
2018-11-20T14:08:54.701Z,7.22
2018-11-20T14:11:36.603Z,7.09
2018-11-20T14:14:40.446Z,7.13
2018-11-20T14:17:45.839Z,7.01
2018-11-20T14:20:56.689Z,6.99
2018-11-20T14:23:44.962Z,7.10
2018-11-20T14:26:33.160Z,7.02
2018-11-20T14:29:45.953Z,7.11
2018-11-20T14:32:22.480Z,6.88
2018-11-20T14:35:11.832Z,6.86
2018-11-20T14:38:03.884Z,6.77
2018-11-20T14:41:01.031Z,7.02
2018-11-20T14:43:50.159Z,6.96
2018-11-20T14:46:51.761Z,7.11
2018-11-20T14:49:41.037Z,6.81
2018-11-20T14:52:31.072Z,7.03
2018-11-20T14:55:33.017Z,7.03
2018-11-20T14:58:22.614Z,6.93
2018-11-20T15:01:17.957Z,7.10
2018-11-20T15:04:10.287Z,6.94
2018-11-20T15:07:02.679Z,6.90
2018-11-20T15:09:52.382Z,6.92
2018-11-20T15:12:34.134Z,6.57
2018-11-20T15:15:26.183Z,6.55
2018-11-20T15:18:14.134Z,6.61
2018-11-20T15:21:07.204Z,6.52
2018-11-20T15:24:07.015Z,6.40
2018-11-20T15:27:05.186Z,6.43
2018-11-20T15:30:13.239Z,6.26
2018-11-20T15:33:00.749Z,6.08
2018-11-20T15:35:51.288Z,5.94
2018-11-20T15:38:41.226Z,5.72
2018-11-20T15:41:30.564Z,5.57
2018-11-20T15:44:30.693Z,5.49
2018-11-20T15:47:29.949Z,5.34
2018-11-20T15:50:25.333Z,5.17
2018-11-20T15:53:12.176Z,5.24
2018-11-20T15:56:09.565Z,5.45
2018-11-20T15:58:58.422Z,5.43
2018-11-20T16:01:48.855Z,5.61
2018-11-20T16:04:38.991Z,5.27
2018-11-20T16:07:17.907Z,5.20
2018-11-20T16:10:13.358Z,5.08
2018-11-20T16:12:59.578Z,4.80
2018-11-20T16:15:53.932Z,4.71
2018-11-20T16:18:57.894Z,4.70
2018-11-20T16:21:48.846Z,4.54
2018-11-20T16:24:46.144Z,4.31
2018-11-20T16:27:26.462Z,4.36
2018-11-20T16:30:15.265Z,4.33
2018-11-20T16:33:05.574Z,4.18
2018-11-20T16:36:03.051Z,3.92
2018-11-20T16:38:52.011Z,3.82
2018-11-20T16:41:57.396Z,3.88
2018-11-20T16:45:01.496Z,3.82
2018-11-20T16:47:56.081Z,3.60
2018-11-20T16:50:59.504Z,3.59
2018-11-20T16:53:47.885Z,3.49
2018-11-20T16:56:52.469Z,3.33
2018-11-20T16:59:40.453Z,3.43
2018-11-20T17:02:35.076Z,3.28
2018-11-20T17:05:24.348Z,3.28
2018-11-20T17:08:18.994Z,3.13
2018-11-20T17:11:15.385Z,3.10
2018-11-20T17:14:14.196Z,3.09
2018-11-20T17:17:01.596Z,3.03
2018-11-20T17:19:58.507Z,2.93
2018-11-20T17:22:48.735Z,2.88
2018-11-20T17:25:38.229Z,2.82
2018-11-20T17:28:27.675Z,2.64
2018-11-20T17:31:19.798Z,2.58
2018-11-20T17:34:15.566Z,2.38
2018-11-20T17:37:06.333Z,2.44
2018-11-20T17:39:57.713Z,2.37
2018-11-20T17:42:42.942Z,2.26
2018-11-20T17:45:32.336Z,2.29
2018-11-20T17:48:26.842Z,2.03
2018-11-20T17:51:19.707Z,2.01
2018-11-20T17:54:02.226Z,1.80
2018-11-20T17:56:54.909Z,1.91
2018-11-20T17:59:38.802Z,1.69
2018-11-20T18:02:34.312Z,1.74
2018-11-20T18:05:15.462Z,1.92
2018-11-20T18:10:57.843Z,1.74
2018-11-20T18:13:48.266Z,1.64
2018-11-20T18:16:38.501Z,1.51
2018-11-20T18:19:33.328Z,1.43
2018-11-20T18:22:34.366Z,1.17
2018-11-20T18:25:43.434Z,1.25
2018-11-20T18:28:32.413Z,0.87
2018-11-20T18:31:35.091Z,1.30
2018-11-20T18:34:24.106Z,1.30
2018-11-20T18:37:28.457Z,1.09
2018-11-20T18:40:34.366Z,1.36
2018-11-20T18:43:25.961Z,1.26
2018-11-20T18:46:29.868Z,1.38
2018-11-20T18:49:26.374Z,1.30
2018-11-20T18:52:17.156Z,1.40
2018-11-20T18:55:08.955Z,1.48
2018-11-20T18:57:48.832Z,1.48
2018-11-20T19:00:34.454Z,1.48
2018-11-20T19:03:26.382Z,1.61
2018-11-20T19:06:16.009Z,1.37
2018-11-20T19:09:24.673Z,1.30
2018-11-20T19:12:22.751Z,1.36
2018-11-20T19:15:17.010Z,1.35
2018-11-20T19:18:07.732Z,1.39
2018-11-20T19:21:05.836Z,1.23
2018-11-20T19:24:10.077Z,1.08
2018-11-20T19:27:07.572Z,1.11
2018-11-20T19:30:00.640Z,0.98
2018-11-20T19:32:54.323Z,1.09
2018-11-20T19:35:42.980Z,0.84
2018-11-20T19:38:31.868Z,1.03
2018-11-20T19:41:40.471Z,0.94
2018-11-20T19:47:36.992Z,0.96
2018-11-20T19:50:31.913Z,0.99
2018-11-20T19:53:31.381Z,1.01
2018-11-20T19:56:28.804Z,1.11
2018-11-20T19:59:20.143Z,1.10
2018-11-20T20:02:10.570Z,1.06
2018-11-20T20:05:01.323Z,0.93
2018-11-20T20:07:56.251Z,0.98
2018-11-20T20:11:08.043Z,1.16
2018-11-20T20:14:14.759Z,1.28
2018-11-20T20:17:17.481Z,1.21
2018-11-20T20:20:07.748Z,1.10
2018-11-20T20:23:05.315Z,1.04
2018-11-20T20:25:57.673Z,1.03
2018-11-20T20:28:47.996Z,1.02
2018-11-20T20:31:37.236Z,1.10
2018-11-20T20:34:34.740Z,1.08
2018-11-20T20:37:25.994Z,1.19
2018-11-20T20:40:16.043Z,1.12
2018-11-20T20:43:12.486Z,1.27
2018-11-20T20:46:11.762Z,1.18
2018-11-20T20:49:08.800Z,1.09
2018-11-20T20:51:59.824Z,1.04
2018-11-20T20:54:55.047Z,0.82
2018-11-20T20:57:51.933Z,0.72
2018-11-20T21:00:41.825Z,0.71
2018-11-20T21:03:26.300Z,0.66
2018-11-20T21:06:21.493Z,0.54
2018-11-20T21:09:11.364Z,0.53
2018-11-20T21:12:00.402Z,0.53
2018-11-20T21:15:06.527Z,0.70
2018-11-20T21:18:06.523Z,0.82
2018-11-20T21:21:17.727Z,0.67
2018-11-20T21:24:17.161Z,0.71
2018-11-20T21:27:09.081Z,0.46
2018-11-20T21:30:11.229Z,0.53
2018-11-20T21:32:58.061Z,0.39
2018-11-20T21:35:47.063Z,0.40
2018-11-20T21:38:35.357Z,0.55
2018-11-20T21:41:42.531Z,0.55
2018-11-20T21:44:31.597Z,0.55
2018-11-20T21:47:23.199Z,0.54
2018-11-20T21:50:28.498Z,0.34
2018-11-20T21:53:25.899Z,0.27
2018-11-20T21:56:18.079Z,0.16
2018-11-20T21:59:13.608Z,0.27
2018-11-20T22:02:00.381Z,0.33
2018-11-20T22:04:52.013Z,0.14
2018-11-20T22:07:48.832Z,0.20
2018-11-20T22:10:36.560Z,-0.09
2018-11-20T22:13:46.492Z,-0.18
2018-11-20T22:16:37.839Z,0.02
2018-11-20T22:19:28.165Z,0.14
2018-11-20T22:22:20.050Z,0.00
2018-11-20T22:25:15.949Z,-0.15
2018-11-20T22:28:06.986Z,-0.15
2018-11-20T22:30:59.969Z,-0.16
2018-11-20T22:33:52.039Z,-0.06
2018-11-20T22:36:48.058Z,-0.22
2018-11-20T22:39:27.303Z,-0.14
2018-11-20T22:42:16.887Z,-0.15
2018-11-20T22:45:18.897Z,-0.18
2018-11-20T22:48:12.337Z,0.03
2018-11-20T22:51:07.759Z,0.24
2018-11-20T22:53:56.062Z,0.09
2018-11-20T22:57:11.888Z,0.07
2018-11-20T23:00:05.549Z,0.31
2018-11-20T23:03:00.426Z,0.19
2018-11-20T23:05:46.109Z,0.03
2018-11-20T23:08:22.276Z,0.39
2018-11-20T23:10:55.692Z,0.20
2018-11-20T23:13:35.530Z,0.10
2018-11-20T23:16:08.661Z,0.18
2018-11-20T23:18:39.294Z,0.13
2018-11-20T23:21:20.941Z,-0.04
2018-11-20T23:23:54.983Z,-0.20
2018-11-20T23:26:25.580Z,0.16
2018-11-20T23:28:58.842Z,0.23
2018-11-20T23:31:29.319Z,0.29
2018-11-20T23:34:01.553Z,0.36
2018-11-20T23:36:33.145Z,0.33
2018-11-20T23:39:11.471Z,0.28
2018-11-20T23:41:44.512Z,0.31
2018-11-20T23:44:18.604Z,0.72
2018-11-20T23:47:03.991Z,0.56
2018-11-20T23:49:35.733Z,0.49
2018-11-20T23:52:20.099Z,0.59
2018-11-20T23:54:49.093Z,0.26
2018-11-20T23:57:22.644Z,0.46
2018-11-20T23:59:55.397Z,0.51
